Time;durP1;ratioP1;P1;durP2;ratioP2;P2;SDS_P1;SDS_P2;PMS_P1;PMS_P2;Temp;Humidity;BMP_temperature;BMP_pressure;BME280_temperature;BME280_humidity;BME280_pressure;Samples;Min_cycle;Max_cycle;Signal;HPM_P1;HPM_P2
2023/07/29 00:01:06;;;;;;;;;;;;;;;;;;5073698;28;876;-70
2023/07/29 00:03:32;;;;;;;;;;;;;;;;;;5074996;28;872;-70
2023/07/29 00:05:57;;;;;;;;;;;;;;;;;;5074559;28;812;-70
2023/07/29 00:08:23;;;;;;;;;;;;;;;;;;5074932;28;932;-70
2023/07/29 00:10:48;;;;;;;;;;;;;;;;;;5075518;28;880;-70
2023/07/29 00:13:13;;;;;;;;;;;;;;;;;;5075060;28;1945;-70
2023/07/29 00:15:39;;;;;;;;;;;;;;;;;;5075573;28;974;-70
2023/07/29 00:18:04;;;;;;;;;;;;;;;;;;5075629;28;816;-70
2023/07/29 00:20:29;;;;;;;;;;;;;;;;;;5075800;28;876;-70
2023/07/29 00:22:54;;;;;;;;;;;;;;;;;;5075425;28;824;-70
2023/07/29 00:25:20;;;;;;;;;;;;;;;;;;5074723;28;1057;-70
2023/07/29 00:27:46;;;;;;;;;;;;;;;;;;5075247;28;879;-70
2023/07/29 00:30:11;;;;;;;;;;;;;;;;;;5075437;28;955;-71
2023/07/29 00:32:37;;;;;;;;;;;;;;;;;;5074860;28;1913;-70
2023/07/29 00:35:02;;;;;;;;;;;;;;;;;;5073406;28;844;-70
2023/07/29 00:37:28;;;;;;;;;;;;;;;;;;5074521;28;895;-70
2023/07/29 00:39:53;;;;;;;;;;;;;;;;;;5074750;28;903;-70
2023/07/29 00:42:18;;;;;;;;;;;;;;;;;;5074124;28;884;-70
2023/07/29 00:44:43;;;;;;;;;;;;;;;;;;5073511;28;888;-70
2023/07/29 00:47:09;;;;;;;;;;;;;;;;;;5074470;28;871;-70
2023/07/29 00:49:35;;;;;;;;;;;;;;;;;;5074364;28;828;-70
2023/07/29 00:52:00;;;;;;;;;;;;;;;;;;5074323;28;1894;-70
2023/07/29 00:54:25;;;;;;;;;;;;;;;;;;5074286;28;825;-70
2023/07/29 00:56:51;;;;;;;;;;;;;;;;;;5073254;28;924;-70
2023/07/29 00:59:16;;;;;;;;;;;;;;;;;;5073769;28;974;-70
2023/07/29 01:01:42;;;;;;;;;;;;;;;;;;5074729;28;844;-70
2023/07/29 01:04:07;;;;;;;;;;;;;;;;;;5073661;28;888;-70
2023/07/29 01:06:40;;;;;;;;;;;;;;;;;;5072376;28;975;-70
2023/07/29 01:09:09;;;;;;;;;;;;;;;;;;5073799;28;868;-70
2023/07/29 01:11:46;;;;;;;;;;;;;;;;;;5073399;28;1902;-70
2023/07/29 01:14:23;;;;;;;;;;;;;;;;;;5073701;28;983;-70
2023/07/29 01:16:58;;;;;;;;;;;;;;;;;;5073717;28;923;-70
2023/07/29 01:19:41;;;;;;;;;;;;;;;;;;5073375;28;1015;-70
2023/07/29 01:22:07;;;;;;;;;;;;;;;;;;5073241;28;954;-70
2023/07/29 01:24:33;;;;;;;;;;;;;;;;;;5072602;28;1249;-70
2023/07/29 01:26:58;;;;;;;;;;;;;;;;;;5073190;28;923;-70
2023/07/29 01:29:23;;;;;;;;;;;;;;;;;;5073102;28;966;-70
2023/07/29 01:31:51;;;;;;;;;;;;;;;;;;5073277;28;1910;-70
2023/07/29 01:34:26;;;;;;;;;;;;;;;;;;5071854;28;920;-70
2023/07/29 01:36:53;;;;;;;;;;;;;;;;;;5072987;28;892;-70
2023/07/29 01:39:21;;;;;;;;;;;;;;;;;;5072929;28;1019;-70
2023/07/29 01:41:47;;;;;;;;;;;;;;;;;;5073333;28;884;-70
2023/07/29 01:44:12;;;;;;;;;;;;;;;;;;5072892;28;895;-70
2023/07/29 01:46:37;;;;;;;;;;;;;;;;;;5072184;28;837;-70
2023/07/29 01:49:03;;;;;;;;;;;;;;;;;;5073478;28;954;-70
2023/07/29 01:51:28;;;;;;;;;;;;;;;;;;5073330;28;1914;-70
2023/07/29 01:53:55;;;;;;;;;;;;;;;;;;5073849;28;972;-71
2023/07/29 01:56:20;;;;;;;;;;;;;;;;;;5072345;28;838;-70
2023/07/29 01:58:45;;;;;;;;;;;;;;;;;;5071154;28;1448;-70
2023/07/29 02:01:11;;;;;;;;;;;;;;;;;;5070186;28;1164;-70
2023/07/29 02:03:36;;;;;;;;;;;;;;;;;;5083201;28;1258;-70
2023/07/29 02:06:01;;;;;;;;;;;;;;;;;;5092531;28;931;-70
2023/07/29 02:08:26;;;;;;;;;;;;;;;;;;5093521;28;1052;-70
2023/07/29 02:10:52;;;;;;;;;;;;;;;;;;5093776;28;931;-70
2023/07/29 02:13:17;;;;;;;;;;;;;;;;;;5092740;28;1945;-70
2023/07/29 02:15:42;;;;;;;;;;;;;;;;;;5092785;28;895;-70
2023/07/29 02:18:07;;;;;;;;;;;;;;;;;;5092436;28;836;-70
2023/07/29 02:20:33;;;;;;;;;;;;;;;;;;5092276;28;840;-70
2023/07/29 02:22:58;;;;;;;;;;;;;;;;;;5092683;28;812;-70
2023/07/29 02:25:23;;;;;;;;;;;;;;;;;;5092471;28;1195;-70
2023/07/29 02:27:48;;;;;;;;;;;;;;;;;;5092469;28;927;-70
2023/07/29 02:30:14;;;;;;;;;;;;;;;;;;5091962;28;994;-70
2023/07/29 02:32:39;;;;;;;;;;;;;;;;;;5092709;28;1967;-70
2023/07/29 02:35:04;;;;;;;;;;;;;;;;;;5092056;28;1022;-70
2023/07/29 02:37:30;;;;;;;;;;;;;;;;;;5091816;28;819;-70
2023/07/29 02:39:55;;;;;;;;;;;;;;;;;;5092363;28;867;-70
2023/07/29 02:42:20;;;;;;;;;;;;;;;;;;5091333;28;887;-70
2023/07/29 02:44:45;;;;;;;;;;;;;;;;;;5092081;28;817;-70
2023/07/29 02:47:11;;;;;;;;;;;;;;;;;;5091479;28;1099;-70
2023/07/29 02:49:36;;;;;;;;;;;;;;;;;;5092772;28;895;-70
2023/07/29 02:52:01;;;;;;;;;;;;;;;;;;5091652;28;1894;-70
2023/07/29 02:54:27;;;;;;;;;;;;;;;;;;5090598;28;841;-70
2023/07/29 02:56:53;;;;;;;;;;;;;;;;;;5074016;28;1961;-70
2023/07/29 02:59:18;;;;;;;;;;;;;;;;;;5091419;28;913;-70
2023/07/29 03:01:43;;;;;;;;;;;;;;;;;;5092043;28;895;-70
2023/07/29 03:04:09;;;;;;;;;;;;;;;;;;5091887;28;1107;-70
2023/07/29 03:06:34;;;;;;;;;;;;;;;;;;5091702;28;817;-70
2023/07/29 03:09:00;;;;;;;;;;;;;;;;;;5092518;28;832;-70
2023/07/29 03:11:25;;;;;;;;;;;;;;;;;;5092059;28;848;-70
2023/07/29 03:13:50;;;;;;;;;;;;;;;;;;5091949;28;1960;-70
2023/07/29 03:16:16;;;;;;;;;;;;;;;;;;5090946;28;883;-70
2023/07/29 03:18:42;;;;;;;;;;;;;;;;;;5091205;28;824;-70
2023/07/29 03:21:07;;;;;;;;;;;;;;;;;;5091289;28;908;-70
2023/07/29 03:23:33;;;;;;;;;;;;;;;;;;5091210;28;1032;-70
2023/07/29 03:25:59;;;;;;;;;;;;;;;;;;5092038;28;900;-70
2023/07/29 03:28:29;;;;;;;;;;;;;;;;;;5091160;28;808;-70
2023/07/29 03:30:54;;;;;;;;;;;;;;;;;;5091811;28;849;-70
2023/07/29 03:33:20;;;;;;;;;;;;;;;;;;5091153;28;1922;-70
2023/07/29 03:35:45;;;;;;;;;;;;;;;;;;5091686;28;879;-70
2023/07/29 03:38:11;;;;;;;;;;;;;;;;;;5091418;28;916;-70
2023/07/29 03:40:36;;;;;;;;;;;;;;;;;;5091512;28;856;-70
2023/07/29 03:43:02;;;;;;;;;;;;;;;;;;5092177;28;907;-70
2023/07/29 03:45:27;;;;;;;;;;;;;;;;;;5091740;28;950;-70
2023/07/29 03:47:52;;;;;;;;;;;;;;;;;;5092114;28;915;-70
2023/07/29 03:50:18;;;;;;;;;;;;;;;;;;5091954;28;875;-70
2023/07/29 03:52:43;;;;;;;;;;;;;;;;;;5092168;28;2024;-70
2023/07/29 03:55:09;;;;;;;;;;;;;;;;;;5092073;28;778;-70
2023/07/29 03:57:34;;;;;;;;;;;;;;;;;;5091849;28;867;-70
2023/07/29 03:59:59;;;;;;;;;;;;;;;;;;5091668;28;1059;-70
2023/07/29 04:02:24;;;;;;;;;;;;;;;;;;5090688;28;938;-70
2023/07/29 04:04:50;;;;;;;;;;;;;;;;;;5091330;28;880;-70
2023/07/29 04:07:15;;;;;;;;;;;;;;;;;;5090342;28;796;-70
2023/07/29 04:09:40;;;;;;;;;;;;;;;;;;5091394;28;891;-70
2023/07/29 04:12:06;;;;;;;;;;;;;;;;;;5091092;28;1894;-70
2023/07/29 04:14:31;;;;;;;;;;;;;;;;;;5089668;28;1036;-70
2023/07/29 04:16:56;;;;;;;;;;;;;;;;;;5091431;28;950;-70
2023/07/29 04:19:22;;;;;;;;;;;;;;;;;;5090636;28;966;-70
2023/07/29 04:21:47;;;;;;;;;;;;;;;;;;5091160;28;876;-70
2023/07/29 04:24:12;;;;;;;;;;;;;;;;;;5090576;28;1072;-70
2023/07/29 04:26:39;;;;;;;;;;;;;;;;;;5090505;28;910;-70
2023/07/29 04:29:04;;;;;;;;;;;;;;;;;;5091011;28;883;-70
2023/07/29 04:31:29;;;;;;;;;;;;;;;;;;5093494;28;1099;-70
2023/07/29 04:33:55;;;;;;;;;;;;;;;;;;5095126;28;1914;-70
2023/07/29 04:36:20;;;;;;;;;;;;;;;;;;5094350;28;904;-70
2023/07/29 04:38:45;;;;;;;;;;;;;;;;;;5095017;28;1088;-70
2023/07/29 04:41:11;;;;;;;;;;;;;;;;;;5094752;28;833;-70
2023/07/29 04:43:36;;;;;;;;;;;;;;;;;;5093104;28;813;-70
2023/07/29 04:46:01;;;;;;;;;;;;;;;;;;5095085;28;974;-70
2023/07/29 04:48:27;;;;;;;;;;;;;;;;;;5094428;28;837;-70
2023/07/29 04:50:52;;;;;;;;;;;;;;;;;;5095524;28;982;-70
2023/07/29 04:53:17;;;;;;;;;;;;;;;;;;5093611;28;1967;-70
2023/07/29 04:55:43;;;;;;;;;;;;;;;;;;5094423;28;892;-70
2023/07/29 04:58:08;;;;;;;;;;;;;;;;;;5094183;28;928;-70
2023/07/29 05:00:33;;;;;;;;;;;;;;;;;;5093900;28;816;-70
2023/07/29 05:02:59;;;;;;;;;;;;;;;;;;5094532;28;903;-70
2023/07/29 05:05:24;;;;;;;;;;;;;;;;;;5092469;28;721;-70
2023/07/29 05:07:49;;;;;;;;;;;;;;;;;;5094087;28;916;-70
2023/07/29 05:10:14;;;;;;;;;;;;;;;;;;5093972;28;1031;-70
2023/07/29 05:12:40;;;;;;;;;;;;;;;;;;5093766;28;1955;-70
2023/07/29 05:15:05;;;;;;;;;;;;;;;;;;5094098;28;967;-70
2023/07/29 05:17:30;;;;;;;;;;;;;;;;;;5093038;28;903;-71
2023/07/29 05:19:56;;;;;;;;;;;;;;;;;;5094313;28;832;-70
2023/07/29 05:22:21;;;;;;;;;;;;;;;;;;5092891;28;903;-70
2023/07/29 05:24:46;;;;;;;;;;;;;;;;;;5093644;28;1183;-70
2023/07/29 05:27:12;;;;;;;;;;;;;;;;;;5093919;28;856;-70
2023/07/29 05:29:37;;;;;;;;;;;;;;;;;;5093026;28;829;-70
2023/07/29 05:32:02;;;;;;;;;;;;;;;;;;5094095;28;1902;-70
2023/07/29 05:34:27;;;;;;;;;;;;;;;;;;5093918;28;1006;-70
2023/07/29 05:36:53;;;;;;;;;;;;;;;;;;5094449;28;868;-70
2023/07/29 05:39:18;;;;;;;;;;;;;;;;;;5094063;28;821;-70
2023/07/29 05:41:43;;;;;;;;;;;;;;;;;;5093501;28;830;-70
2023/07/29 05:44:08;;;;;;;;;;;;;;;;;;5094095;28;887;-70
2023/07/29 05:46:34;;;;;;;;;;;;;;;;;;5093799;28;900;-70
2023/07/29 05:48:59;;;;;;;;;;;;;;;;;;5093332;28;835;-70
2023/07/29 05:51:24;;;;;;;;;;;;;;;;;;5093858;28;895;-70
2023/07/29 05:53:49;;;;;;;;;;;;;;;;;;5093422;28;1979;-70
2023/07/29 05:56:15;;;;;;;;;;;;;;;;;;5092906;28;840;-70
2023/07/29 05:58:40;;;;;;;;;;;;;;;;;;5092206;28;1026;-70
2023/07/29 06:01:05;;;;;;;;;;;;;;;;;;5093223;28;832;-70
2023/07/29 06:03:30;;;;;;;;;;;;;;;;;;5091056;28;1006;-70
2023/07/29 06:05:56;;;;;;;;;;;;;;;;;;5093360;28;856;-71
2023/07/29 06:08:21;;;;;;;;;;;;;;;;;;5092548;28;812;-70
2023/07/29 06:10:46;;;;;;;;;;;;;;;;;;5092735;28;1046;-70
2023/07/29 06:13:11;;;;;;;;;;;;;;;;;;5093051;28;1953;-70
2023/07/29 06:15:37;;;;;;;;;;;;;;;;;;5092405;28;1041;-70
2023/07/29 06:18:02;;;;;;;;;;;;;;;;;;5093019;28;930;-70
2023/07/29 06:20:28;;;;;;;;;;;;;;;;;;5091207;28;1335;-70
2023/07/29 06:22:53;;;;;;;;;;;;;;;;;;5093892;28;835;-70
2023/07/29 06:25:19;;;;;;;;;;;;;;;;;;5092457;28;1282;-70
2023/07/29 06:27:44;;;;;;;;;;;;;;;;;;5092760;28;923;-70
2023/07/29 06:30:10;;;;;;;;;;;;;;;;;;5091402;28;1155;-70
2023/07/29 06:32:35;;;;;;;;;;;;;;;;;;5092603;28;1913;-70
2023/07/29 06:35:00;;;;;;;;;;;;;;;;;;5092707;28;825;-70
2023/07/29 06:37:26;;;;;;;;;;;;;;;;;;5092686;28;831;-70
2023/07/29 06:39:51;;;;;;;;;;;;;;;;;;5072879;28;1112;-70
2023/07/29 06:42:16;;;;;;;;;;;;;;;;;;5070945;28;1327;-70
2023/07/29 06:44:41;;;;;;;;;;;;;;;;;;5071284;28;1377;-70
2023/07/29 06:47:07;;;;;;;;;;;;;;;;;;5072013;28;907;-70
2023/07/29 06:49:32;;;;;;;;;;;;;;;;;;5071724;28;833;-71
2023/07/29 06:51:57;;;;;;;;;;;;;;;;;;5072107;28;1902;-71
2023/07/29 06:54:26;;;;;;;;;;;;;;;;;;5070582;28;935;-70
2023/07/29 06:56:51;;;;;;;;;;;;;;;;;;5072092;28;809;-70
2023/07/29 06:59:16;;;;;;;;;;;;;;;;;;5072074;28;1036;-70
2023/07/29 07:01:42;;;;;;;;;;;;;;;;;;5071050;28;919;-70
2023/07/29 07:04:07;;;;;;;;;;;;;;;;;;5071508;28;967;-69
2023/07/29 07:06:32;;;;;;;;;;;;;;;;;;5071711;28;883;-69
2023/07/29 07:08:57;;;;;;;;;;;;;;;;;;5071827;28;824;-70
2023/07/29 07:11:23;;;;;;;;;;;;;;;;;;5071762;28;896;-69
2023/07/29 07:13:48;;;;;;;;;;;;;;;;;;5071301;28;1965;-69
2023/07/29 07:16:13;;;;;;;;;;;;;;;;;;5071407;28;872;-70
2023/07/29 07:18:38;;;;;;;;;;;;;;;;;;5070920;28;892;-69
2023/07/29 07:21:04;;;;;;;;;;;;;;;;;;5071729;28;812;-69
2023/07/29 07:23:29;;;;;;;;;;;;;;;;;;5070948;28;1060;-69
2023/07/29 07:25:54;;;;;;;;;;;;;;;;;;5071849;28;954;-69
2023/07/29 07:28:19;;;;;;;;;;;;;;;;;;5071445;28;927;-69
2023/07/29 07:30:45;;;;;;;;;;;;;;;;;;5069673;28;904;-69
2023/07/29 07:33:10;;;;;;;;;;;;;;;;;;5071638;28;1909;-69
2023/07/29 07:35:35;;;;;;;;;;;;;;;;;;5070806;28;864;-69
2023/07/29 07:38:03;;;;;;;;;;;;;;;;;;5071452;28;889;-69
2023/07/29 07:40:28;;;;;;;;;;;;;;;;;;5070821;28;954;-69
2023/07/29 07:42:54;;;;;;;;;;;;;;;;;;5071859;28;986;-70
2023/07/29 07:45:19;;;;;;;;;;;;;;;;;;5071634;28;903;-69
2023/07/29 07:47:44;;;;;;;;;;;;;;;;;;5071688;28;939;-69
2023/07/29 07:50:10;;;;;;;;;;;;;;;;;;5072031;28;953;-70
2023/07/29 07:52:35;;;;;;;;;;;;;;;;;;5070876;28;1989;-69
2023/07/29 07:55:00;;;;;;;;;;;;;;;;;;5072251;28;919;-70
2023/07/29 07:57:26;;;;;;;;;;;;;;;;;;5071985;28;848;-71
2023/07/29 07:59:52;;;;;;;;;;;;;;;;;;5071526;28;950;-69
2023/07/29 08:02:17;;;;;;;;;;;;;;;;;;5072303;28;812;-68
2023/07/29 08:04:43;;;;;;;;;;;;;;;;;;5069998;28;816;-69
2023/07/29 08:07:08;;;;;;;;;;;;;;;;;;5075748;28;864;-70
2023/07/29 08:09:33;;;;;;;;;;;;;;;;;;5074432;28;883;-69
2023/07/29 08:11:59;;;;;;;;;;;;;;;;;;5075023;28;1894;-69
2023/07/29 08:14:24;;;;;;;;;;;;;;;;;;5075557;28;828;-69
2023/07/29 08:16:49;;;;;;;;;;;;;;;;;;5074371;28;817;-69
2023/07/29 08:19:14;;;;;;;;;;;;;;;;;;5074566;28;954;-69
2023/07/29 08:21:40;;;;;;;;;;;;;;;;;;5073938;28;773;-68
2023/07/29 08:24:07;;;;;;;;;;;;;;;;;;5074219;28;1247;-68
2023/07/29 08:26:32;;;;;;;;;;;;;;;;;;5073074;28;895;-67
2023/07/29 08:28:57;;;;;;;;;;;;;;;;;;5073088;28;1705;-68
2023/07/29 08:31:23;;;;;;;;;;;;;;;;;;5074035;28;1058;-68
2023/07/29 08:33:48;;;;;;;;;;;;;;;;;;5073716;28;1971;-69
2023/07/29 08:36:13;;;;;;;;;;;;;;;;;;5073908;28;1010;-69
2023/07/29 08:38:38;;;;;;;;;;;;;;;;;;5073939;28;821;-69
2023/07/29 08:41:22;;;;;;;;;;;;;;;;;;5074329;28;785;-69
2023/07/29 08:43:54;;;;;;;;;;;;;;;;;;5073543;28;916;-69
2023/07/29 08:46:20;;;;;;;;;;;;;;;;;;5074387;28;832;-69
2023/07/29 08:48:45;;;;;;;;;;;;;;;;;;5072230;28;931;-69
2023/07/29 08:51:11;;;;;;;;;;;;;;;;;;5074094;28;903;-69
2023/07/29 08:53:37;;;;;;;;;;;;;;;;;;5072803;28;1957;-69
2023/07/29 08:56:03;;;;;;;;;;;;;;;;;;5073675;28;962;-69
2023/07/29 08:58:29;;;;;;;;;;;;;;;;;;5072977;28;897;-69
2023/07/29 09:00:54;;;;;;;;;;;;;;;;;;5073654;28;931;-68
2023/07/29 09:03:20;;;;;;;;;;;;;;;;;;5072751;28;773;-69
2023/07/29 09:05:45;;;;;;;;;;;;;;;;;;5073114;28;1081;-69
2023/07/29 09:08:11;;;;;;;;;;;;;;;;;;5074048;28;888;-69
2023/07/29 09:10:37;;;;;;;;;;;;;;;;;;5072962;28;868;-69
2023/07/29 09:13:03;;;;;;;;;;;;;;;;;;5073208;28;1959;-69
2023/07/29 09:15:29;;;;;;;;;;;;;;;;;;5072743;28;857;-68
2023/07/29 09:17:55;;;;;;;;;;;;;;;;;;5072391;28;888;-69
2023/07/29 09:20:23;;;;;;;;;;;;;;;;;;5072483;28;1011;-69
2023/07/29 09:22:49;;;;;;;;;;;;;;;;;;5072718;28;872;-69
2023/07/29 09:25:16;;;;;;;;;;;;;;;;;;5073147;28;1332;-69
2023/07/29 09:27:41;;;;;;;;;;;;;;;;;;5071867;28;884;-69
2023/07/29 09:30:15;;;;;;;;;;;;;;;;;;5074400;28;864;-73
2023/07/29 09:32:41;;;;;;;;;;;;;;;;;;5074615;28;1906;-69
2023/07/29 09:35:10;;;;;;;;;;;;;;;;;;5073477;28;1171;-67
2023/07/29 09:37:37;;;;;;;;;;;;;;;;;;5071503;28;808;-67
2023/07/29 09:40:02;;;;;;;;;;;;;;;;;;5073750;28;927;-68
2023/07/29 09:42:28;;;;;;;;;;;;;;;;;;5072842;28;813;-68
2023/07/29 09:44:53;;;;;;;;;;;;;;;;;;5072526;28;1055;-67
2023/07/29 09:47:19;;;;;;;;;;;;;;;;;;5074430;28;921;-70
2023/07/29 09:49:44;;;;;;;;;;;;;;;;;;5073170;28;833;-67
2023/07/29 09:52:10;;;;;;;;;;;;;;;;;;5073884;28;1901;-69
2023/07/29 09:54:36;;;;;;;;;;;;;;;;;;5073845;28;916;-66
2023/07/29 09:57:02;;;;;;;;;;;;;;;;;;5081463;28;1179;-65
2023/07/29 09:59:27;;;;;;;;;;;;;;;;;;5080130;28;1160;-66
2023/07/29 10:01:53;;;;;;;;;;;;;;;;;;5085448;28;1148;-65
2023/07/29 10:04:18;;;;;;;;;;;;;;;;;;5091709;28;1167;-65
2023/07/29 10:06:45;;;;;;;;;;;;;;;;;;5068782;28;1163;-66
2023/07/29 10:09:11;;;;;;;;;;;;;;;;;;5085612;28;1167;-65
2023/07/29 10:11:37;;;;;;;;;;;;;;;;;;5091588;28;1473;-65
2023/07/29 10:14:02;;;;;;;;;;;;;;;;;;5092833;28;1972;-66
2023/07/29 10:16:28;;;;;;;;;;;;;;;;;;5091893;28;883;-67
2023/07/29 10:18:54;;;;;;;;;;;;;;;;;;5092826;28;862;-66
2023/07/29 10:21:21;;;;;;;;;;;;;;;;;;5092503;28;982;-67
2023/07/29 10:23:49;;;;;;;;;;;;;;;;;;5091496;28;1093;-66
2023/07/29 10:26:16;;;;;;;;;;;;;;;;;;5091151;28;905;-66
2023/07/29 10:28:46;;;;;;;;;;;;;;;;;;5091612;28;916;-66
2023/07/29 10:31:11;;;;;;;;;;;;;;;;;;5092088;28;754;-66
2023/07/29 10:33:37;;;;;;;;;;;;;;;;;;5092047;28;1913;-67
2023/07/29 10:36:04;;;;;;;;;;;;;;;;;;5092557;28;1062;-66
2023/07/29 10:38:30;;;;;;;;;;;;;;;;;;5092495;28;868;-65
2023/07/29 10:40:56;;;;;;;;;;;;;;;;;;5091816;28;1053;-66
2023/07/29 10:43:35;;;;;;;;;;;;;;;;;;5092209;28;911;-66
2023/07/29 10:46:20;;;;;;;;;;;;;;;;;;5092075;28;808;-65
2023/07/29 10:48:51;;;;;;;;;;;;;;;;;;5091624;28;1082;-65
2023/07/29 10:51:29;;;;;;;;;;;;;;;;;;5092458;28;1006;-69
2023/07/29 10:54:09;;;;;;;;;;;;;;;;;;5089930;28;1959;-68
2023/07/29 10:56:35;;;;;;;;;;;;;;;;;;5091983;28;848;-65
2023/07/29 10:59:12;;;;;;;;;;;;;;;;;;5092110;28;1065;-65
2023/07/29 11:01:42;;;;;;;;;;;;;;;;;;5091870;28;1021;-68
2023/07/29 11:04:20;;;;;;;;;;;;;;;;;;5091340;28;834;-64
2023/07/29 11:07:07;;;;;;;;;;;;;;;;;;5091723;28;804;-65
2023/07/29 11:09:42;;;;;;;;;;;;;;;;;;5092184;28;880;-65
2023/07/29 11:12:26;;;;;;;;;;;;;;;;;;5092711;28;1955;-65
2023/07/29 11:14:51;;;;;;;;;;;;;;;;;;5092384;28;848;-66
2023/07/29 11:17:17;;;;;;;;;;;;;;;;;;5092575;28;1162;-66
2023/07/29 11:19:43;;;;;;;;;;;;;;;;;;5092191;28;991;-67
2023/07/29 11:22:09;;;;;;;;;;;;;;;;;;5092124;28;1053;-69
2023/07/29 11:24:34;;;;;;;;;;;;;;;;;;5091978;28;1197;-67
2023/07/29 11:26:59;;;;;;;;;;;;;;;;;;5089576;28;1601;-64
2023/07/29 11:29:25;;;;;;;;;;;;;;;;;;5052888;28;970;-67
2023/07/29 11:31:51;;;;;;;;;;;;;;;;;;5052030;28;1910;-67
2023/07/29 11:34:20;;;;;;;;;;;;;;;;;;5053032;28;1011;-65
2023/07/29 11:36:45;;;;;;;;;;;;;;;;;;5048150;28;1358;-65
2023/07/29 11:39:11;;;;;;;;;;;;;;;;;;5050983;28;908;-65
2023/07/29 11:41:37;;;;;;;;;;;;;;;;;;5051118;28;817;-65
2023/07/29 11:44:02;;;;;;;;;;;;;;;;;;5052065;28;966;-65
2023/07/29 11:46:27;;;;;;;;;;;;;;;;;;5051857;28;1044;-65
2023/07/29 11:48:54;;;;;;;;;;;;;;;;;;5051830;28;928;-66
2023/07/29 11:51:19;;;;;;;;;;;;;;;;;;5050562;28;1160;-66
2023/07/29 11:53:44;;;;;;;;;;;;;;;;;;5051671;28;1970;-65
2023/07/29 11:56:10;;;;;;;;;;;;;;;;;;5051335;28;911;-66
2023/07/29 11:58:36;;;;;;;;;;;;;;;;;;5050625;28;1010;-66
2023/07/29 12:01:03;;;;;;;;;;;;;;;;;;5050683;28;884;-66
2023/07/29 12:03:29;;;;;;;;;;;;;;;;;;5050843;28;947;-66
2023/07/29 12:05:54;;;;;;;;;;;;;;;;;;5082632;28;1148;-66
2023/07/29 12:08:19;;;;;;;;;;;;;;;;;;5049302;28;1143;-66
2023/07/29 12:10:45;;;;;;;;;;;;;;;;;;5050718;28;871;-66
2023/07/29 12:13:10;;;;;;;;;;;;;;;;;;5050804;28;1971;-66
2023/07/29 12:15:38;;;;;;;;;;;;;;;;;;5050679;28;801;-66
2023/07/29 12:18:03;;;;;;;;;;;;;;;;;;5050668;28;872;-66
2023/07/29 12:20:29;;;;;;;;;;;;;;;;;;5050774;28;981;-66
2023/07/29 12:22:56;;;;;;;;;;;;;;;;;;5049917;28;1031;-66
2023/07/29 12:25:21;;;;;;;;;;;;;;;;;;5050236;28;1125;-66
2023/07/29 12:27:47;;;;;;;;;;;;;;;;;;5050801;28;943;-66
2023/07/29 12:30:12;;;;;;;;;;;;;;;;;;5050767;28;892;-66
2023/07/29 12:32:45;;;;;;;;;;;;;;;;;;5050364;28;1979;-65
2023/07/29 12:35:10;;;;;;;;;;;;;;;;;;5050241;28;912;-65
2023/07/29 12:37:35;;;;;;;;;;;;;;;;;;5050204;28;1020;-65
2023/07/29 12:40:02;;;;;;;;;;;;;;;;;;5050522;28;888;-65
2023/07/29 12:42:27;;;;;;;;;;;;;;;;;;5050589;28;809;-65
2023/07/29 12:44:52;;;;;;;;;;;;;;;;;;5049842;28;943;-65
2023/07/29 12:47:18;;;;;;;;;;;;;;;;;;5050292;28;880;-65
2023/07/29 12:49:43;;;;;;;;;;;;;;;;;;5049856;28;876;-65
2023/07/29 12:52:08;;;;;;;;;;;;;;;;;;5052560;28;1897;-65
2023/07/29 12:54:33;;;;;;;;;;;;;;;;;;5053898;28;888;-67
2023/07/29 12:56:59;;;;;;;;;;;;;;;;;;5053894;28;1149;-65
2023/07/29 12:59:24;;;;;;;;;;;;;;;;;;5054320;28;1045;-65
2023/07/29 13:01:49;;;;;;;;;;;;;;;;;;5054032;28;857;-65
2023/07/29 13:04:14;;;;;;;;;;;;;;;;;;5053920;28;903;-65
2023/07/29 13:06:40;;;;;;;;;;;;;;;;;;5054208;28;947;-65
2023/07/29 13:09:05;;;;;;;;;;;;;;;;;;5053797;28;975;-65
2023/07/29 13:11:32;;;;;;;;;;;;;;;;;;5054610;28;907;-65
2023/07/29 13:13:58;;;;;;;;;;;;;;;;;;5068583;28;1906;-65
2023/07/29 13:16:23;;;;;;;;;;;;;;;;;;5053794;28;1108;-66
2023/07/29 13:18:48;;;;;;;;;;;;;;;;;;5053671;28;946;-65
2023/07/29 13:21:13;;;;;;;;;;;;;;;;;;5052970;28;1030;-65
2023/07/29 13:23:39;;;;;;;;;;;;;;;;;;5051630;28;1502;-65
2023/07/29 13:26:04;;;;;;;;;;;;;;;;;;5052689;28;1043;-65
2023/07/29 13:28:29;;;;;;;;;;;;;;;;;;5053545;28;919;-65
2023/07/29 13:30:54;;;;;;;;;;;;;;;;;;5052686;28;872;-65
2023/07/29 13:33:19;;;;;;;;;;;;;;;;;;5053665;28;1910;-65
2023/07/29 13:35:45;;;;;;;;;;;;;;;;;;5053235;28;896;-65
2023/07/29 13:38:11;;;;;;;;;;;;;;;;;;5054476;28;829;-65
2023/07/29 13:40:36;;;;;;;;;;;;;;;;;;5085925;28;899;-65
2023/07/29 13:43:01;;;;;;;;;;;;;;;;;;5086010;28;903;-65
2023/07/29 13:45:27;;;;;;;;;;;;;;;;;;5053774;28;911;-66
2023/07/29 13:47:52;;;;;;;;;;;;;;;;;;5051968;28;1255;-65
2023/07/29 13:50:18;;;;;;;;;;;;;;;;;;5053099;28;1101;-65
2023/07/29 13:52:43;;;;;;;;;;;;;;;;;;5052387;28;1951;-65
2023/07/29 13:55:08;;;;;;;;;;;;;;;;;;5084963;28;824;-65
2023/07/29 13:57:33;;;;;;;;;;;;;;;;;;5052815;28;794;-65
2023/07/29 13:59:59;;;;;;;;;;;;;;;;;;5052520;28;1112;-65
2023/07/29 14:02:28;;;;;;;;;;;;;;;;;;5053132;28;910;-65
2023/07/29 14:04:53;;;;;;;;;;;;;;;;;;5052064;28;921;-65
2023/07/29 14:07:18;;;;;;;;;;;;;;;;;;5050906;28;1230;-65
2023/07/29 14:09:44;;;;;;;;;;;;;;;;;;5052090;28;999;-65
2023/07/29 14:12:14;;;;;;;;;;;;;;;;;;5051913;28;1898;-65
2023/07/29 14:14:39;;;;;;;;;;;;;;;;;;5051469;28;1572;-65
2023/07/29 14:17:05;;;;;;;;;;;;;;;;;;5058574;28;1773;-65
2023/07/29 14:19:31;;;;;;;;;;;;;;;;;;5072224;28;856;-65
2023/07/29 14:21:56;;;;;;;;;;;;;;;;;;5071542;28;833;-65
2023/07/29 14:24:22;;;;;;;;;;;;;;;;;;5071749;28;1109;-65
2023/07/29 14:26:47;;;;;;;;;;;;;;;;;;5071200;28;895;-66
2023/07/29 14:29:13;;;;;;;;;;;;;;;;;;5087492;28;1242;-66
2023/07/29 14:31:38;;;;;;;;;;;;;;;;;;5070060;28;1579;-65
2023/07/29 14:34:03;;;;;;;;;;;;;;;;;;5069533;28;1940;-65
2023/07/29 14:36:28;;;;;;;;;;;;;;;;;;5071798;28;826;-65
2023/07/29 14:38:54;;;;;;;;;;;;;;;;;;5071312;28;1184;-65
2023/07/29 14:41:19;;;;;;;;;;;;;;;;;;5071819;28;801;-66
2023/07/29 14:43:44;;;;;;;;;;;;;;;;;;5071622;28;1039;-65
2023/07/29 14:46:09;;;;;;;;;;;;;;;;;;5071521;28;970;-66
2023/07/29 14:48:34;;;;;;;;;;;;;;;;;;5071254;28;802;-66
2023/07/29 14:51:00;;;;;;;;;;;;;;;;;;5071769;28;766;-65
2023/07/29 14:53:25;;;;;;;;;;;;;;;;;;5071281;28;1963;-65
2023/07/29 14:55:50;;;;;;;;;;;;;;;;;;5069849;28;869;-65
2023/07/29 14:58:15;;;;;;;;;;;;;;;;;;5071111;28;992;-66
2023/07/29 15:00:41;;;;;;;;;;;;;;;;;;5070942;28;860;-66
2023/07/29 15:03:07;;;;;;;;;;;;;;;;;;5071280;28;958;-66
2023/07/29 15:05:32;;;;;;;;;;;;;;;;;;5071100;28;853;-71
2023/07/29 15:07:57;;;;;;;;;;;;;;;;;;5070187;28;907;-72
2023/07/29 15:10:23;;;;;;;;;;;;;;;;;;5071683;28;1037;-70
2023/07/29 15:12:48;;;;;;;;;;;;;;;;;;5071885;28;1902;-71
2023/07/29 15:15:13;;;;;;;;;;;;;;;;;;5072199;28;872;-70
2023/07/29 15:17:38;;;;;;;;;;;;;;;;;;5070145;28;1222;-70
2023/07/29 15:20:04;;;;;;;;;;;;;;;;;;5072171;28;915;-71
2023/07/29 15:22:31;;;;;;;;;;;;;;;;;;5070169;28;1223;-70
2023/07/29 15:24:59;;;;;;;;;;;;;;;;;;5072060;28;1053;-71
2023/07/29 15:27:24;;;;;;;;;;;;;;;;;;5068846;28;1293;-71
2023/07/29 15:29:49;;;;;;;;;;;;;;;;;;5070343;28;1140;-71
2023/07/29 15:32:15;;;;;;;;;;;;;;;;;;5069896;28;1919;-71
2023/07/29 15:34:40;;;;;;;;;;;;;;;;;;5069736;28;883;-71
2023/07/29 15:37:06;;;;;;;;;;;;;;;;;;5071099;28;1019;-71
2023/07/29 15:39:31;;;;;;;;;;;;;;;;;;5069205;28;1249;-70
2023/07/29 15:41:56;;;;;;;;;;;;;;;;;;5070806;28;912;-71
2023/07/29 15:44:22;;;;;;;;;;;;;;;;;;5069637;28;955;-71
2023/07/29 15:46:47;;;;;;;;;;;;;;;;;;5070144;28;923;-70
2023/07/29 15:49:13;;;;;;;;;;;;;;;;;;5070060;28;1027;-70
2023/07/29 15:51:38;;;;;;;;;;;;;;;;;;5068868;28;1223;-71
2023/07/29 15:54:04;;;;;;;;;;;;;;;;;;5069667;28;1955;-70
2023/07/29 15:56:30;;;;;;;;;;;;;;;;;;5070288;28;911;-71
2023/07/29 15:58:55;;;;;;;;;;;;;;;;;;5071128;28;993;-70
2023/07/29 16:01:23;;;;;;;;;;;;;;;;;;5069321;28;1441;-71
2023/07/29 16:03:49;;;;;;;;;;;;;;;;;;5053160;28;1487;-71
2023/07/29 16:06:14;;;;;;;;;;;;;;;;;;5070794;28;999;-71
2023/07/29 16:08:39;;;;;;;;;;;;;;;;;;5052605;28;1219;-71
2023/07/29 16:11:05;;;;;;;;;;;;;;;;;;5071110;28;825;-71
2023/07/29 16:13:30;;;;;;;;;;;;;;;;;;5069670;28;1898;-71
2023/07/29 16:15:55;;;;;;;;;;;;;;;;;;5070960;28;904;-71
2023/07/29 16:18:20;;;;;;;;;;;;;;;;;;5069785;28;841;-71
2023/07/29 16:20:46;;;;;;;;;;;;;;;;;;5051137;28;1821;-71
2023/07/29 16:23:11;;;;;;;;;;;;;;;;;;5069801;28;1356;-71
2023/07/29 16:25:37;;;;;;;;;;;;;;;;;;5068747;28;1182;-72
2023/07/29 16:28:02;;;;;;;;;;;;;;;;;;5074797;28;904;-71
2023/07/29 16:30:27;;;;;;;;;;;;;;;;;;5075034;28;915;-70
2023/07/29 16:32:53;;;;;;;;;;;;;;;;;;5074241;28;1913;-72
2023/07/29 16:35:18;;;;;;;;;;;;;;;;;;5074331;28;844;-71
2023/07/29 16:37:43;;;;;;;;;;;;;;;;;;5056096;28;1305;-71
2023/07/29 16:40:09;;;;;;;;;;;;;;;;;;5074219;28;840;-71
2023/07/29 16:42:34;;;;;;;;;;;;;;;;;;5074129;28;802;-71
2023/07/29 16:45:00;;;;;;;;;;;;;;;;;;5073430;28;908;-72
2023/07/29 16:47:26;;;;;;;;;;;;;;;;;;5072618;28;1175;-72
2023/07/29 16:49:51;;;;;;;;;;;;;;;;;;5073043;28;920;-71
2023/07/29 16:52:17;;;;;;;;;;;;;;;;;;5073393;28;1902;-71
2023/07/29 16:54:42;;;;;;;;;;;;;;;;;;5073535;28;818;-71
2023/07/29 16:57:07;;;;;;;;;;;;;;;;;;5073837;28;912;-71
2023/07/29 16:59:32;;;;;;;;;;;;;;;;;;5055166;28;1467;-70
2023/07/29 17:01:58;;;;;;;;;;;;;;;;;;5083143;28;1179;-71
2023/07/29 17:04:23;;;;;;;;;;;;;;;;;;5094551;28;878;-70